Etusivu
METAR-TAF:

METAR-TAF

Lentoasemat :

Katima Mulilo, Namibia

Leveyspiiri: 17-38-04S, Pituuspiiri: 024-10-36E, korkeus merenpinnasta: 985 m

Tämänhetkinen sää

Tämä raportti tehtiin 37 minuuttia sitten, kello 16.00 UTC
tyyntä
Lämpötila 26°C
Kosteus 18%
Ilmanpaine 1019 hPa

METAR: FYKM 141600Z AUTO 00000KT //// // ////// 26/M00 Q1019

Aika: 18:37 (16:37 UTC)

Sääennuste

Tämä raportti tehtiin 2 tuntia ja 37 minuuttia sitten, kello 14.00 UTC
Ennuste voimassa 14. päivästä klo 15 UTC - 14. päivään klo 24 UTC
Tuuli 5 kn idästä/kaakosta
Näkyvyys 10 km tai enemmän
ei pilviä alle 1500 m:ssä eikä cumulonimbus-pilviä

TAF: FYKM 141400Z 1415/1424 11005KT CAVOK

Säähavainnot ja -ennusteet yli 4000 lentoasemalta (METAR- ja TAF-raportit).

Käytössä olevat sääasemat on merkitty karttaan keltaisilla ja punaisilla pisteillä.

Aseta hiiri pisteen päälle nähdäksesi sääaseman nimen.

Klikkaa sitten nähdäksesi säähavainnot ja -ennusteet.

Kartan vaihtaminen: klikkaa mustalla rastilla varustettuja vihreitä pisteitä, niin voit zoomata sisään; viivalla varustettua vihreää pistettä, niin voit zoomata ulos tai vihreitä nuolia, niin pääset viereisille kartoille.


METAR-TAF: